sensor_id;sensor_type;location;lat;lon;timestamp;P1;durP1;ratioP1;P2;durP2;ratioP2
3141;SDS011;1581;51.568;6.998;2023-12-20T00:00:48;19.47;;;11.40;;
3141;SDS011;1581;51.568;6.998;2023-12-20T00:03:17;20.37;;;11.13;;
3141;SDS011;1581;51.568;6.998;2023-12-20T00:05:51;18.90;;;10.30;;
3141;SDS011;1581;51.568;6.998;2023-12-20T00:08:23;14.13;;;9.90;;
3141;SDS011;1581;51.568;6.998;2023-12-20T00:10:50;20.70;;;9.20;;
3141;SDS011;1581;51.568;6.998;2023-12-20T00:13:17;13.87;;;8.50;;
3141;SDS011;1581;51.568;6.998;2023-12-20T00:15:45;17.90;;;8.80;;
3141;SDS011;1581;51.568;6.998;2023-12-20T00:18:12;15.60;;;8.33;;
3141;SDS011;1581;51.568;6.998;2023-12-20T00:20:41;13.73;;;8.50;;
3141;SDS011;1581;51.568;6.998;2023-12-20T00:23:09;14.83;;;7.50;;
3141;SDS011;1581;51.568;6.998;2023-12-20T00:25:36;12.37;;;7.80;;
3141;SDS011;1581;51.568;6.998;2023-12-20T00:28:04;15.93;;;7.63;;
3141;SDS011;1581;51.568;6.998;2023-12-20T00:33:49;18.07;;;7.67;;
3141;SDS011;1581;51.568;6.998;2023-12-20T00:36:18;18.27;;;9.67;;
3141;SDS011;1581;51.568;6.998;2023-12-20T00:38:45;17.03;;;8.13;;
3141;SDS011;1581;51.568;6.998;2023-12-20T00:41:12;17.37;;;9.20;;
3141;SDS011;1581;51.568;6.998;2023-12-20T00:43:40;18.43;;;8.70;;
3141;SDS011;1581;51.568;6.998;2023-12-20T00:46:07;17.40;;;9.10;;
3141;SDS011;1581;51.568;6.998;2023-12-20T00:48:35;18.90;;;10.23;;
3141;SDS011;1581;51.568;6.998;2023-12-20T00:51:02;22.10;;;9.60;;
3141;SDS011;1581;51.568;6.998;2023-12-20T00:53:32;18.07;;;10.00;;
3141;SDS011;1581;51.568;6.998;2023-12-20T00:55:59;19.20;;;9.00;;
3141;SDS011;1581;51.568;6.998;2023-12-20T00:58:27;14.57;;;9.10;;
3141;SDS011;1581;51.568;6.998;2023-12-20T01:00:54;18.37;;;8.53;;
3141;SDS011;1581;51.568;6.998;2023-12-20T01:03:23;13.80;;;8.20;;
3141;SDS011;1581;51.568;6.998;2023-12-20T01:05:50;19.37;;;8.93;;
3141;SDS011;1581;51.568;6.998;2023-12-20T01:08:18;18.90;;;10.17;;
3141;SDS011;1581;51.568;6.998;2023-12-20T01:10:47;15.73;;;9.40;;
3141;SDS011;1581;51.568;6.998;2023-12-20T01:13:14;14.83;;;7.63;;
3141;SDS011;1581;51.568;6.998;2023-12-20T01:15:41;10.67;;;7.17;;
3141;SDS011;1581;51.568;6.998;2023-12-20T01:18:09;13.47;;;6.43;;
3141;SDS011;1581;51.568;6.998;2023-12-20T01:20:36;14.17;;;6.60;;
3141;SDS011;1581;51.568;6.998;2023-12-20T01:23:04;17.40;;;6.30;;
3141;SDS011;1581;51.568;6.998;2023-12-20T01:25:31;15.10;;;6.07;;
3141;SDS011;1581;51.568;6.998;2023-12-20T01:28:00;14.40;;;6.63;;
3141;SDS011;1581;51.568;6.998;2023-12-20T01:30:28;15.00;;;6.87;;
3141;SDS011;1581;51.568;6.998;2023-12-20T01:32:55;16.30;;;6.10;;
3141;SDS011;1581;51.568;6.998;2023-12-20T01:35:23;20.60;;;6.33;;
3141;SDS011;1581;51.568;6.998;2023-12-20T01:37:50;13.47;;;6.80;;
3141;SDS011;1581;51.568;6.998;2023-12-20T01:40:21;12.63;;;6.60;;
3141;SDS011;1581;51.568;6.998;2023-12-20T01:42:57;17.20;;;5.90;;
3141;SDS011;1581;51.568;6.998;2023-12-20T01:45:27;17.17;;;5.93;;
3141;SDS011;1581;51.568;6.998;2023-12-20T01:47:55;14.27;;;5.57;;
3141;SDS011;1581;51.568;6.998;2023-12-20T01:50:25;11.07;;;5.43;;
3141;SDS011;1581;51.568;6.998;2023-12-20T01:52:53;19.30;;;5.50;;
3141;SDS011;1581;51.568;6.998;2023-12-20T01:55:24;9.93;;;5.00;;
3141;SDS011;1581;51.568;6.998;2023-12-20T01:57:53;11.33;;;4.93;;
3141;SDS011;1581;51.568;6.998;2023-12-20T02:00:23;11.50;;;5.03;;
3141;SDS011;1581;51.568;6.998;2023-12-20T02:02:51;16.63;;;5.50;;
3141;SDS011;1581;51.568;6.998;2023-12-20T02:05:20;13.87;;;5.20;;
3141;SDS011;1581;51.568;6.998;2023-12-20T02:07:48;15.23;;;5.40;;
3141;SDS011;1581;51.568;6.998;2023-12-20T02:10:15;14.77;;;5.17;;
3141;SDS011;1581;51.568;6.998;2023-12-20T02:12:43;8.97;;;4.90;;
3141;SDS011;1581;51.568;6.998;2023-12-20T02:15:11;17.77;;;5.60;;
3141;SDS011;1581;51.568;6.998;2023-12-20T02:17:40;14.77;;;5.20;;
3141;SDS011;1581;51.568;6.998;2023-12-20T02:20:08;9.07;;;4.53;;
3141;SDS011;1581;51.568;6.998;2023-12-20T02:22:37;20.60;;;5.70;;
3141;SDS011;1581;51.568;6.998;2023-12-20T02:25:05;11.77;;;5.53;;
3141;SDS011;1581;51.568;6.998;2023-12-20T02:27:33;14.83;;;5.93;;
3141;SDS011;1581;51.568;6.998;2023-12-20T02:30:01;18.23;;;5.20;;
3141;SDS011;1581;51.568;6.998;2023-12-20T02:32:30;15.07;;;5.00;;
3141;SDS011;1581;51.568;6.998;2023-12-20T02:34:57;11.33;;;4.87;;
3141;SDS011;1581;51.568;6.998;2023-12-20T02:37:24;13.97;;;5.13;;
3141;SDS011;1581;51.568;6.998;2023-12-20T02:39:53;9.00;;;4.70;;
3141;SDS011;1581;51.568;6.998;2023-12-20T02:42:21;9.17;;;5.00;;
3141;SDS011;1581;51.568;6.998;2023-12-20T02:44:48;19.87;;;5.03;;
3141;SDS011;1581;51.568;6.998;2023-12-20T02:47:16;10.87;;;5.03;;
3141;SDS011;1581;51.568;6.998;2023-12-20T02:49:43;13.90;;;4.50;;
3141;SDS011;1581;51.568;6.998;2023-12-20T02:52:11;20.80;;;5.87;;
3141;SDS011;1581;51.568;6.998;2023-12-20T02:54:38;18.50;;;5.87;;
3141;SDS011;1581;51.568;6.998;2023-12-20T02:57:07;9.23;;;4.33;;
3141;SDS011;1581;51.568;6.998;2023-12-20T02:59:34;14.83;;;6.83;;
3141;SDS011;1581;51.568;6.998;2023-12-20T03:02:02;18.50;;;5.60;;
3141;SDS011;1581;51.568;6.998;2023-12-20T03:04:29;14.80;;;5.40;;
3141;SDS011;1581;51.568;6.998;2023-12-20T03:06:57;15.20;;;6.60;;
3141;SDS011;1581;51.568;6.998;2023-12-20T03:09:24;20.90;;;6.80;;
3141;SDS011;1581;51.568;6.998;2023-12-20T03:11:52;18.90;;;6.10;;
3141;SDS011;1581;51.568;6.998;2023-12-20T03:14:20;18.33;;;7.03;;
3141;SDS011;1581;51.568;6.998;2023-12-20T03:16:49;11.53;;;5.50;;
3141;SDS011;1581;51.568;6.998;2023-12-20T03:19:16;15.90;;;6.37;;
3141;SDS011;1581;51.568;6.998;2023-12-20T03:21:50;12.57;;;5.50;;
3141;SDS011;1581;51.568;6.998;2023-12-20T03:24:18;14.00;;;5.70;;
3141;SDS011;1581;51.568;6.998;2023-12-20T03:26:46;19.40;;;6.17;;
3141;SDS011;1581;51.568;6.998;2023-12-20T03:29:13;23.13;;;6.03;;
3141;SDS011;1581;51.568;6.998;2023-12-20T03:31:42;12.30;;;5.30;;
3141;SDS011;1581;51.568;6.998;2023-12-20T03:34:09;10.70;;;4.60;;
3141;SDS011;1581;51.568;6.998;2023-12-20T03:36:37;14.43;;;5.30;;
3141;SDS011;1581;51.568;6.998;2023-12-20T03:39:05;10.40;;;4.03;;
3141;SDS011;1581;51.568;6.998;2023-12-20T03:41:32;16.67;;;5.03;;
3141;SDS011;1581;51.568;6.998;2023-12-20T03:44:00;17.53;;;5.13;;
3141;SDS011;1581;51.568;6.998;2023-12-20T03:46:27;14.47;;;3.73;;
3141;SDS011;1581;51.568;6.998;2023-12-20T03:48:56;10.13;;;3.90;;
3141;SDS011;1581;51.568;6.998;2023-12-20T03:51:23;21.13;;;3.40;;
3141;SDS011;1581;51.568;6.998;2023-12-20T03:53:51;12.50;;;3.90;;
3141;SDS011;1581;51.568;6.998;2023-12-20T03:56:18;13.03;;;4.37;;
3141;SDS011;1581;51.568;6.998;2023-12-20T03:58:46;15.87;;;4.53;;
3141;SDS011;1581;51.568;6.998;2023-12-20T04:01:13;16.03;;;3.70;;
3141;SDS011;1581;51.568;6.998;2023-12-20T04:03:41;7.90;;;3.00;;
3141;SDS011;1581;51.568;6.998;2023-12-20T04:06:10;13.87;;;3.10;;
3141;SDS011;1581;51.568;6.998;2023-12-20T04:08:42;11.53;;;3.40;;
3141;SDS011;1581;51.568;6.998;2023-12-20T04:11:10;20.27;;;3.30;;
3141;SDS011;1581;51.568;6.998;2023-12-20T04:13:37;17.90;;;3.50;;
3141;SDS011;1581;51.568;6.998;2023-12-20T04:16:05;15.17;;;3.20;;
3141;SDS011;1581;51.568;6.998;2023-12-20T04:18:32;17.33;;;3.80;;
3141;SDS011;1581;51.568;6.998;2023-12-20T04:21:00;16.47;;;3.40;;
3141;SDS011;1581;51.568;6.998;2023-12-20T04:23:29;10.70;;;3.30;;
3141;SDS011;1581;51.568;6.998;2023-12-20T04:25:56;15.00;;;3.73;;
3141;SDS011;1581;51.568;6.998;2023-12-20T04:28:24;18.53;;;3.60;;
3141;SDS011;1581;51.568;6.998;2023-12-20T04:33:52;21.63;;;4.53;;
3141;SDS011;1581;51.568;6.998;2023-12-20T04:36:20;16.10;;;3.63;;
3141;SDS011;1581;51.568;6.998;2023-12-20T04:42:29;20.00;;;3.83;;
3141;SDS011;1581;51.568;6.998;2023-12-20T04:44:57;24.10;;;3.80;;
3141;SDS011;1581;51.568;6.998;2023-12-20T04:47:24;18.50;;;3.80;;
3141;SDS011;1581;51.568;6.998;2023-12-20T04:49:52;20.70;;;4.63;;
3141;SDS011;1581;51.568;6.998;2023-12-20T04:52:19;20.30;;;4.17;;
3141;SDS011;1581;51.568;6.998;2023-12-20T04:54:46;14.17;;;2.90;;
3141;SDS011;1581;51.568;6.998;2023-12-20T04:57:14;17.17;;;3.40;;
3141;SDS011;1581;51.568;6.998;2023-12-20T04:59:43;17.13;;;3.40;;
3141;SDS011;1581;51.568;6.998;2023-12-20T05:02:10;19.00;;;3.60;;
3141;SDS011;1581;51.568;6.998;2023-12-20T05:04:38;17.90;;;3.77;;
3141;SDS011;1581;51.568;6.998;2023-12-20T05:07:06;11.40;;;3.50;;
3141;SDS011;1581;51.568;6.998;2023-12-20T05:09:34;12.93;;;2.97;;
3141;SDS011;1581;51.568;6.998;2023-12-20T05:12:02;12.30;;;3.20;;
3141;SDS011;1581;51.568;6.998;2023-12-20T05:14:30;14.03;;;4.17;;
3141;SDS011;1581;51.568;6.998;2023-12-20T05:16:59;17.50;;;3.67;;
3141;SDS011;1581;51.568;6.998;2023-12-20T05:19:26;13.00;;;4.13;;
3141;SDS011;1581;51.568;6.998;2023-12-20T05:21:54;18.33;;;4.27;;
3141;SDS011;1581;51.568;6.998;2023-12-20T05:24:21;12.33;;;4.00;;
3141;SDS011;1581;51.568;6.998;2023-12-20T05:26:48;28.43;;;4.33;;
3141;SDS011;1581;51.568;6.998;2023-12-20T05:29:16;12.93;;;3.90;;
3141;SDS011;1581;51.568;6.998;2023-12-20T05:31:43;13.53;;;3.97;;
3141;SDS011;1581;51.568;6.998;2023-12-20T05:34:12;17.20;;;4.00;;
3141;SDS011;1581;51.568;6.998;2023-12-20T05:36:39;17.80;;;4.77;;
3141;SDS011;1581;51.568;6.998;2023-12-20T05:39:07;25.17;;;7.50;;
3141;SDS011;1581;51.568;6.998;2023-12-20T05:41:34;20.07;;;5.90;;
3141;SDS011;1581;51.568;6.998;2023-12-20T05:44:02;30.57;;;5.20;;
3141;SDS011;1581;51.568;6.998;2023-12-20T05:46:30;15.60;;;4.27;;
3141;SDS011;1581;51.568;6.998;2023-12-20T05:48:58;19.67;;;4.57;;
3141;SDS011;1581;51.568;6.998;2023-12-20T05:51:26;23.20;;;4.63;;
3141;SDS011;1581;51.568;6.998;2023-12-20T05:53:54;27.53;;;4.47;;
3141;SDS011;1581;51.568;6.998;2023-12-20T05:56:21;23.67;;;5.77;;
3141;SDS011;1581;51.568;6.998;2023-12-20T05:58:49;10.73;;;5.10;;
3141;SDS011;1581;51.568;6.998;2023-12-20T06:01:16;15.10;;;4.97;;
3141;SDS011;1581;51.568;6.998;2023-12-20T06:03:44;23.40;;;4.77;;
3141;SDS011;1581;51.568;6.998;2023-12-20T06:06:12;22.47;;;4.77;;
3141;SDS011;1581;51.568;6.998;2023-12-20T06:08:41;18.40;;;4.10;;
3141;SDS011;1581;51.568;6.998;2023-12-20T06:11:08;22.53;;;5.33;;
3141;SDS011;1581;51.568;6.998;2023-12-20T06:13:36;21.93;;;4.77;;
3141;SDS011;1581;51.568;6.998;2023-12-20T06:16:04;15.77;;;4.97;;
3141;SDS011;1581;51.568;6.998;2023-12-20T06:18:32;19.10;;;6.33;;
3141;SDS011;1581;51.568;6.998;2023-12-20T06:21:02;19.30;;;5.80;;
3141;SDS011;1581;51.568;6.998;2023-12-20T06:23:31;19.03;;;5.50;;
3141;SDS011;1581;51.568;6.998;2023-12-20T06:26:00;13.27;;;5.63;;
3141;SDS011;1581;51.568;6.998;2023-12-20T06:28:27;17.67;;;5.10;;
3141;SDS011;1581;51.568;6.998;2023-12-20T06:30:55;28.30;;;6.13;;
3141;SDS011;1581;51.568;6.998;2023-12-20T06:33:22;19.40;;;4.97;;
3141;SDS011;1581;51.568;6.998;2023-12-20T06:35:50;17.80;;;5.97;;
3141;SDS011;1581;51.568;6.998;2023-12-20T06:38:18;18.10;;;5.80;;
3141;SDS011;1581;51.568;6.998;2023-12-20T06:40:46;24.70;;;5.90;;
3141;SDS011;1581;51.568;6.998;2023-12-20T06:43:15;21.13;;;5.53;;
3141;SDS011;1581;51.568;6.998;2023-12-20T06:45:43;18.93;;;4.87;;
3141;SDS011;1581;51.568;6.998;2023-12-20T06:48:12;20.93;;;6.10;;
3141;SDS011;1581;51.568;6.998;2023-12-20T06:50:39;14.17;;;5.40;;
3141;SDS011;1581;51.568;6.998;2023-12-20T06:53:07;18.77;;;5.50;;
3141;SDS011;1581;51.568;6.998;2023-12-20T06:55:34;26.33;;;5.63;;
3141;SDS011;1581;51.568;6.998;2023-12-20T06:58:03;20.10;;;5.07;;
3141;SDS011;1581;51.568;6.998;2023-12-20T07:00:31;28.30;;;5.50;;
3141;SDS011;1581;51.568;6.998;2023-12-20T07:03:00;30.27;;;5.63;;
3141;SDS011;1581;51.568;6.998;2023-12-20T07:05:28;21.50;;;5.53;;
3141;SDS011;1581;51.568;6.998;2023-12-20T07:07:56;17.53;;;4.90;;
3141;SDS011;1581;51.568;6.998;2023-12-20T07:10:23;19.50;;;5.50;;
3141;SDS011;1581;51.568;6.998;2023-12-20T07:12:52;24.33;;;5.83;;
3141;SDS011;1581;51.568;6.998;2023-12-20T07:15:21;22.07;;;5.57;;
3141;SDS011;1581;51.568;6.998;2023-12-20T07:17:53;23.37;;;5.17;;
3141;SDS011;1581;51.568;6.998;2023-12-20T07:20:25;25.17;;;5.30;;
3141;SDS011;1581;51.568;6.998;2023-12-20T07:22:55;12.80;;;4.43;;
3141;SDS011;1581;51.568;6.998;2023-12-20T07:25:24;15.80;;;4.90;;
3141;SDS011;1581;51.568;6.998;2023-12-20T07:27:53;13.53;;;4.93;;
3141;SDS011;1581;51.568;6.998;2023-12-20T07:30:22;22.23;;;4.80;;
3141;SDS011;1581;51.568;6.998;2023-12-20T07:32:54;23.27;;;4.87;;
3141;SDS011;1581;51.568;6.998;2023-12-20T07:35:24;18.53;;;4.67;;
3141;SDS011;1581;51.568;6.998;2023-12-20T07:37:52;25.47;;;5.20;;
3141;SDS011;1581;51.568;6.998;2023-12-20T07:40:20;19.63;;;4.47;;
3141;SDS011;1581;51.568;6.998;2023-12-20T07:42:51;21.07;;;4.73;;
3141;SDS011;1581;51.568;6.998;2023-12-20T07:45:26;16.63;;;4.40;;
3141;SDS011;1581;51.568;6.998;2023-12-20T07:47:58;20.30;;;4.93;;
3141;SDS011;1581;51.568;6.998;2023-12-20T07:50:27;15.73;;;4.40;;
3141;SDS011;1581;51.568;6.998;2023-12-20T07:52:57;24.40;;;4.00;;
3141;SDS011;1581;51.568;6.998;2023-12-20T07:55:27;14.20;;;4.80;;
3141;SDS011;1581;51.568;6.998;2023-12-20T07:57:57;23.63;;;4.23;;
3141;SDS011;1581;51.568;6.998;2023-12-20T08:00:26;17.30;;;4.40;;
3141;SDS011;1581;51.568;6.998;2023-12-20T08:02:58;17.03;;;4.77;;
3141;SDS011;1581;51.568;6.998;2023-12-20T08:05:29;10.30;;;3.37;;
3141;SDS011;1581;51.568;6.998;2023-12-20T08:07:58;15.50;;;4.10;;
3141;SDS011;1581;51.568;6.998;2023-12-20T08:10:27;18.17;;;4.97;;
3141;SDS011;1581;51.568;6.998;2023-12-20T08:12:55;21.37;;;4.90;;
3141;SDS011;1581;51.568;6.998;2023-12-20T08:15:23;13.27;;;4.10;;
3141;SDS011;1581;51.568;6.998;2023-12-20T08:17:50;13.63;;;4.20;;
3141;SDS011;1581;51.568;6.998;2023-12-20T08:20:19;8.73;;;3.53;;
3141;SDS011;1581;51.568;6.998;2023-12-20T08:22:47;13.80;;;4.67;;
3141;SDS011;1581;51.568;6.998;2023-12-20T08:25:14;17.73;;;4.43;;
3141;SDS011;1581;51.568;6.998;2023-12-20T08:27:42;16.53;;;3.80;;
3141;SDS011;1581;51.568;6.998;2023-12-20T08:30:09;17.13;;;4.20;;
3141;SDS011;1581;51.568;6.998;2023-12-20T08:32:37;13.10;;;4.30;;
3141;SDS011;1581;51.568;6.998;2023-12-20T08:35:05;19.23;;;3.93;;
3141;SDS011;1581;51.568;6.998;2023-12-20T08:37:35;12.23;;;3.63;;
3141;SDS011;1581;51.568;6.998;2023-12-20T08:40:03;17.40;;;5.40;;
3141;SDS011;1581;51.568;6.998;2023-12-20T08:42:31;20.93;;;3.57;;
3141;SDS011;1581;51.568;6.998;2023-12-20T08:44:59;25.67;;;3.53;;
3141;SDS011;1581;51.568;6.998;2023-12-20T08:47:26;19.87;;;4.37;;
3141;SDS011;1581;51.568;6.998;2023-12-20T08:49:53;18.90;;;3.57;;
3141;SDS011;1581;51.568;6.998;2023-12-20T08:52:23;14.43;;;3.63;;
3141;SDS011;1581;51.568;6.998;2023-12-20T08:54:53;31.80;;;3.97;;
3141;SDS011;1581;51.568;6.998;2023-12-20T08:57:21;18.60;;;3.90;;
3141;SDS011;1581;51.568;6.998;2023-12-20T08:59:50;16.17;;;4.00;;
3141;SDS011;1581;51.568;6.998;2023-12-20T09:02:17;18.43;;;3.97;;
3141;SDS011;1581;51.568;6.998;2023-12-20T09:04:45;15.10;;;3.93;;
3141;SDS011;1581;51.568;6.998;2023-12-20T09:07:22;13.60;;;3.80;;
3141;SDS011;1581;51.568;6.998;2023-12-20T09:09:50;18.27;;;4.03;;
3141;SDS011;1581;51.568;6.998;2023-12-20T09:12:19;20.63;;;4.20;;
3141;SDS011;1581;51.568;6.998;2023-12-20T09:14:46;11.80;;;3.43;;
3141;SDS011;1581;51.568;6.998;2023-12-20T09:17:14;10.90;;;3.60;;
3141;SDS011;1581;51.568;6.998;2023-12-20T09:19:43;24.30;;;3.33;;
3141;SDS011;1581;51.568;6.998;2023-12-20T09:22:10;21.10;;;3.97;;
3141;SDS011;1581;51.568;6.998;2023-12-20T09:24:38;18.60;;;3.70;;
3141;SDS011;1581;51.568;6.998;2023-12-20T09:27:06;10.00;;;3.80;;
3141;SDS011;1581;51.568;6.998;2023-12-20T09:29:35;14.67;;;3.73;;
3141;SDS011;1581;51.568;6.998;2023-12-20T09:32:02;20.30;;;3.70;;
3141;SDS011;1581;51.568;6.998;2023-12-20T09:34:30;17.83;;;3.80;;
3141;SDS011;1581;51.568;6.998;2023-12-20T09:36:58;20.33;;;3.47;;
3141;SDS011;1581;51.568;6.998;2023-12-20T09:39:25;16.60;;;3.23;;
3141;SDS011;1581;51.568;6.998;2023-12-20T09:41:57;15.37;;;3.00;;
3141;SDS011;1581;51.568;6.998;2023-12-20T09:44:27;12.27;;;3.57;;
3141;SDS011;1581;51.568;6.998;2023-12-20T09:46:57;18.27;;;3.10;;
3141;SDS011;1581;51.568;6.998;2023-12-20T09:49:25;11.27;;;3.90;;
3141;SDS011;1581;51.568;6.998;2023-12-20T09:51:55;12.47;;;3.50;;
3141;SDS011;1581;51.568;6.998;2023-12-20T09:54:23;21.77;;;3.70;;
3141;SDS011;1581;51.568;6.998;2023-12-20T09:56:51;13.87;;;4.17;;
3141;SDS011;1581;51.568;6.998;2023-12-20T09:59:19;13.47;;;4.03;;
3141;SDS011;1581;51.568;6.998;2023-12-20T10:01:47;15.47;;;3.60;;
3141;SDS011;1581;51.568;6.998;2023-12-20T10:04:16;26.83;;;4.87;;
3141;SDS011;1581;51.568;6.998;2023-12-20T10:06:45;17.00;;;3.27;;
3141;SDS011;1581;51.568;6.998;2023-12-20T10:09:12;16.70;;;3.20;;
3141;SDS011;1581;51.568;6.998;2023-12-20T10:11:40;24.23;;;4.30;;
3141;SDS011;1581;51.568;6.998;2023-12-20T10:14:07;14.70;;;4.43;;
3141;SDS011;1581;51.568;6.998;2023-12-20T10:16:36;12.30;;;3.13;;
3141;SDS011;1581;51.568;6.998;2023-12-20T10:19:04;27.20;;;4.30;;
3141;SDS011;1581;51.568;6.998;2023-12-20T10:21:33;22.07;;;4.53;;
3141;SDS011;1581;51.568;6.998;2023-12-20T10:24:00;19.33;;;3.97;;
3141;SDS011;1581;51.568;6.998;2023-12-20T10:26:27;21.97;;;4.13;;
3141;SDS011;1581;51.568;6.998;2023-12-20T10:28:55;16.57;;;4.30;;
3141;SDS011;1581;51.568;6.998;2023-12-20T10:31:29;10.33;;;2.90;;
3141;SDS011;1581;51.568;6.998;2023-12-20T10:33:58;17.03;;;3.27;;
3141;SDS011;1581;51.568;6.998;2023-12-20T10:36:28;17.93;;;3.60;;
3141;SDS011;1581;51.568;6.998;2023-12-20T10:38:59;18.77;;;3.50;;
3141;SDS011;1581;51.568;6.998;2023-12-20T10:41:28;13.50;;;3.97;;
3141;SDS011;1581;51.568;6.998;2023-12-20T10:43:58;17.20;;;4.07;;
3141;SDS011;1581;51.568;6.998;2023-12-20T10:46:27;17.80;;;3.53;;
3141;SDS011;1581;51.568;6.998;2023-12-20T10:48:55;21.70;;;4.70;;
3141;SDS011;1581;51.568;6.998;2023-12-20T10:51:24;16.33;;;3.70;;
3141;SDS011;1581;51.568;6.998;2023-12-20T10:53:53;16.03;;;3.60;;
3141;SDS011;1581;51.568;6.998;2023-12-20T10:56:22;11.17;;;3.20;;
3141;SDS011;1581;51.568;6.998;2023-12-20T10:58:50;10.10;;;2.83;;
3141;SDS011;1581;51.568;6.998;2023-12-20T11:01:18;11.90;;;2.97;;
3141;SDS011;1581;51.568;6.998;2023-12-20T11:03:48;17.80;;;3.63;;
3141;SDS011;1581;51.568;6.998;2023-12-20T11:06:20;15.30;;;4.10;;
3141;SDS011;1581;51.568;6.998;2023-12-20T11:09:01;19.60;;;4.20;;
3141;SDS011;1581;51.568;6.998;2023-12-20T11:11:46;21.17;;;3.40;;
3141;SDS011;1581;51.568;6.998;2023-12-20T11:14:27;18.27;;;4.53;;
3141;SDS011;1581;51.568;6.998;2023-12-20T11:17:07;14.23;;;3.03;;
3141;SDS011;1581;51.568;6.998;2023-12-20T11:19:37;15.60;;;2.97;;
3141;SDS011;1581;51.568;6.998;2023-12-20T11:22:09;16.30;;;3.20;;
3141;SDS011;1581;51.568;6.998;2023-12-20T11:24:38;16.40;;;3.70;;
3141;SDS011;1581;51.568;6.998;2023-12-20T11:27:13;16.63;;;3.40;;
3141;SDS011;1581;51.568;6.998;2023-12-20T11:29:41;11.87;;;3.43;;
3141;SDS011;1581;51.568;6.998;2023-12-20T11:32:29;8.50;;;2.93;;
3141;SDS011;1581;51.568;6.998;2023-12-20T11:34:57;16.07;;;3.50;;
3141;SDS011;1581;51.568;6.998;2023-12-20T11:37:29;15.63;;;3.50;;
3141;SDS011;1581;51.568;6.998;2023-12-20T11:40:00;15.40;;;3.77;;
3141;SDS011;1581;51.568;6.998;2023-12-20T11:42:33;14.17;;;3.90;;
3141;SDS011;1581;51.568;6.998;2023-12-20T11:45:04;13.33;;;4.10;;
3141;SDS011;1581;51.568;6.998;2023-12-20T11:47:36;16.93;;;3.10;;
3141;SDS011;1581;51.568;6.998;2023-12-20T11:50:05;22.80;;;4.10;;
3141;SDS011;1581;51.568;6.998;2023-12-20T11:52:33;13.53;;;3.27;;
3141;SDS011;1581;51.568;6.998;2023-12-20T11:55:01;25.83;;;4.70;;
3141;SDS011;1581;51.568;6.998;2023-12-20T11:57:28;15.20;;;4.00;;
3141;SDS011;1581;51.568;6.998;2023-12-20T11:59:57;19.40;;;4.20;;
3141;SDS011;1581;51.568;6.998;2023-12-20T12:02:25;10.23;;;3.70;;
3141;SDS011;1581;51.568;6.998;2023-12-20T12:04:52;16.17;;;5.33;;
3141;SDS011;1581;51.568;6.998;2023-12-20T12:07:21;15.80;;;4.00;;
3141;SDS011;1581;51.568;6.998;2023-12-20T12:09:49;14.83;;;4.27;;
3141;SDS011;1581;51.568;6.998;2023-12-20T12:12:16;19.30;;;5.03;;
3141;SDS011;1581;51.568;6.998;2023-12-20T12:14:45;13.93;;;4.70;;
3141;SDS011;1581;51.568;6.998;2023-12-20T12:17:14;16.23;;;5.83;;
3141;SDS011;1581;51.568;6.998;2023-12-20T12:19:42;11.73;;;4.80;;
3141;SDS011;1581;51.568;6.998;2023-12-20T12:22:10;18.27;;;5.40;;
3141;SDS011;1581;51.568;6.998;2023-12-20T12:24:40;23.87;;;4.77;;
3141;SDS011;1581;51.568;6.998;2023-12-20T12:27:09;42.50;;;5.83;;
3141;SDS011;1581;51.568;6.998;2023-12-20T12:29:38;19.83;;;4.37;;
3141;SDS011;1581;51.568;6.998;2023-12-20T12:32:06;20.10;;;6.13;;
3141;SDS011;1581;51.568;6.998;2023-12-20T12:34:35;17.03;;;4.80;;
3141;SDS011;1581;51.568;6.998;2023-12-20T12:37:03;14.43;;;4.47;;
3141;SDS011;1581;51.568;6.998;2023-12-20T12:39:31;13.70;;;4.50;;
3141;SDS011;1581;51.568;6.998;2023-12-20T12:41:58;32.93;;;5.33;;
3141;SDS011;1581;51.568;6.998;2023-12-20T12:44:26;14.37;;;4.60;;
3141;SDS011;1581;51.568;6.998;2023-12-20T12:46:54;16.03;;;5.03;;
3141;SDS011;1581;51.568;6.998;2023-12-20T12:49:22;17.43;;;3.77;;
3141;SDS011;1581;51.568;6.998;2023-12-20T12:51:51;24.00;;;4.90;;
3141;SDS011;1581;51.568;6.998;2023-12-20T12:54:19;23.53;;;3.80;;
3141;SDS011;1581;51.568;6.998;2023-12-20T12:56:46;29.07;;;5.40;;
3141;SDS011;1581;51.568;6.998;2023-12-20T12:59:14;16.53;;;3.80;;
3141;SDS011;1581;51.568;6.998;2023-12-20T13:01:42;19.23;;;4.70;;
3141;SDS011;1581;51.568;6.998;2023-12-20T13:04:09;19.70;;;3.83;;
3141;SDS011;1581;51.568;6.998;2023-12-20T13:06:37;14.50;;;4.00;;
3141;SDS011;1581;51.568;6.998;2023-12-20T13:09:07;25.67;;;4.90;;
3141;SDS011;1581;51.568;6.998;2023-12-20T13:11:35;12.13;;;4.70;;
3141;SDS011;1581;51.568;6.998;2023-12-20T13:14:03;16.70;;;3.93;;
3141;SDS011;1581;51.568;6.998;2023-12-20T13:16:31;7.57;;;3.67;;
3141;SDS011;1581;51.568;6.998;2023-12-20T13:18:59;14.50;;;4.60;;
3141;SDS011;1581;51.568;6.998;2023-12-20T13:21:27;11.97;;;5.10;;
3141;SDS011;1581;51.568;6.998;2023-12-20T13:23:56;9.77;;;4.30;;
3141;SDS011;1581;51.568;6.998;2023-12-20T13:26:25;10.67;;;4.27;;
3141;SDS011;1581;51.568;6.998;2023-12-20T13:28:53;13.87;;;4.67;;
3141;SDS011;1581;51.568;6.998;2023-12-20T13:31:21;14.23;;;4.70;;
3141;SDS011;1581;51.568;6.998;2023-12-20T13:33:49;20.77;;;5.17;;
3141;SDS011;1581;51.568;6.998;2023-12-20T13:36:17;26.03;;;5.07;;
3141;SDS011;1581;51.568;6.998;2023-12-20T13:38:45;18.00;;;5.80;;
3141;SDS011;1581;51.568;6.998;2023-12-20T13:41:12;19.63;;;4.43;;
3141;SDS011;1581;51.568;6.998;2023-12-20T13:43:41;6.80;;;3.57;;
3141;SDS011;1581;51.568;6.998;2023-12-20T13:46:08;21.03;;;5.73;;
3141;SDS011;1581;51.568;6.998;2023-12-20T13:48:36;14.50;;;5.30;;
3141;SDS011;1581;51.568;6.998;2023-12-20T13:51:04;12.27;;;5.87;;
3141;SDS011;1581;51.568;6.998;2023-12-20T13:53:32;17.50;;;5.80;;
3141;SDS011;1581;51.568;6.998;2023-12-20T13:55:59;15.10;;;5.50;;
3141;SDS011;1581;51.568;6.998;2023-12-20T13:58:27;17.20;;;5.77;;
3141;SDS011;1581;51.568;6.998;2023-12-20T14:03:54;19.87;;;6.33;;
3141;SDS011;1581;51.568;6.998;2023-12-20T14:06:22;18.70;;;6.83;;
3141;SDS011;1581;51.568;6.998;2023-12-20T14:08:49;19.90;;;7.20;;
3141;SDS011;1581;51.568;6.998;2023-12-20T14:11:16;13.97;;;6.60;;
3141;SDS011;1581;51.568;6.998;2023-12-20T14:13:44;22.40;;;7.63;;
3141;SDS011;1581;51.568;6.998;2023-12-20T14:16:11;16.23;;;7.07;;
3141;SDS011;1581;51.568;6.998;2023-12-20T14:18:41;15.03;;;7.40;;
3141;SDS011;1581;51.568;6.998;2023-12-20T14:21:08;23.23;;;8.10;;
3141;SDS011;1581;51.568;6.998;2023-12-20T14:23:36;15.63;;;7.60;;
3141;SDS011;1581;51.568;6.998;2023-12-20T14:26:03;23.57;;;5.73;;
3141;SDS011;1581;51.568;6.998;2023-12-20T14:28:30;16.53;;;6.40;;
3141;SDS011;1581;51.568;6.998;2023-12-20T14:30:58;13.30;;;5.80;;
3141;SDS011;1581;51.568;6.998;2023-12-20T14:33:25;10.03;;;5.03;;
3141;SDS011;1581;51.568;6.998;2023-12-20T14:35:54;14.13;;;5.20;;
3141;SDS011;1581;51.568;6.998;2023-12-20T14:38:21;13.10;;;5.27;;
3141;SDS011;1581;51.568;6.998;2023-12-20T14:40:49;14.90;;;5.60;;
3141;SDS011;1581;51.568;6.998;2023-12-20T14:43:17;13.07;;;6.20;;
3141;SDS011;1581;51.568;6.998;2023-12-20T14:45:44;8.80;;;5.60;;
3141;SDS011;1581;51.568;6.998;2023-12-20T14:48:11;14.93;;;6.17;;
3141;SDS011;1581;51.568;6.998;2023-12-20T14:50:39;25.40;;;7.50;;
3141;SDS011;1581;51.568;6.998;2023-12-20T14:53:09;21.07;;;8.20;;
3141;SDS011;1581;51.568;6.998;2023-12-20T14:55:37;19.23;;;6.20;;
3141;SDS011;1581;51.568;6.998;2023-12-20T14:58:06;17.80;;;6.33;;
3141;SDS011;1581;51.568;6.998;2023-12-20T15:00:35;18.83;;;6.00;;
3141;SDS011;1581;51.568;6.998;2023-12-20T15:03:03;19.53;;;7.10;;
3141;SDS011;1581;51.568;6.998;2023-12-20T15:05:32;15.30;;;7.10;;
3141;SDS011;1581;51.568;6.998;2023-12-20T15:07:59;31.43;;;8.47;;
3141;SDS011;1581;51.568;6.998;2023-12-20T15:10:28;20.33;;;7.70;;
3141;SDS011;1581;51.568;6.998;2023-12-20T15:12:55;19.33;;;7.03;;
3141;SDS011;1581;51.568;6.998;2023-12-20T15:15:23;21.17;;;7.17;;
3141;SDS011;1581;51.568;6.998;2023-12-20T15:17:52;18.23;;;6.50;;
3141;SDS011;1581;51.568;6.998;2023-12-20T15:20:20;15.03;;;6.33;;
3141;SDS011;1581;51.568;6.998;2023-12-20T15:22:48;29.13;;;8.13;;